Time;durP1;ratioP1;P1;durP2;ratioP2;P2;SDS_P1;SDS_P2;PMS_P1;PMS_P2;Temp;Humidity;BMP_temperature;BMP_pressure;BME280_temperature;BME280_humidity;BME280_pressure;Samples;Min_cycle;Max_cycle;Signal;HPM_P1;HPM_P2
2022/09/17 07:02:56;;;;;;;8.55;2.00;;;10.70;99.90;;;;;;5953849;23;1218904;-86
2022/09/17 07:05:22;;;;;;;12.50;2.08;;;10.70;99.90;;;;;;6002317;23;20080;-86
2022/09/17 07:07:48;;;;;;;9.93;2.25;;;10.70;99.90;;;;;;6002339;23;20051;-87
2022/09/17 07:10:13;;;;;;;8.55;2.00;;;10.70;99.90;;;;;;6001825;23;20441;-87
2022/09/17 07:12:40;;;;;;;8.95;1.95;;;10.80;99.90;;;;;;6003512;23;20046;-86
2022/09/17 07:15:07;;;;;;;9.00;2.00;;;11.00;99.90;;;;;;6001492;23;20086;-85
2022/09/17 07:17:32;;;;;;;9.77;2.00;;;11.10;99.90;;;;;;6001088;23;20639;-85
2022/09/17 07:19:58;;;;;;;8.52;1.83;;;11.20;99.90;;;;;;6004977;23;20345;-86
2022/09/17 07:22:24;;;;;;;13.27;2.33;;;11.20;99.90;;;;;;6002820;23;20019;-85
2022/09/17 07:24:49;;;;;;;10.90;2.30;;;11.30;99.90;;;;;;6002697;23;20071;-86
2022/09/17 07:27:15;;;;;;;9.00;2.00;;;11.50;99.90;;;;;;6004383;23;20019;-86
2022/09/17 07:29:41;;;;;;;10.20;1.98;;;11.40;99.90;;;;;;6003371;23;20059;-87
2022/09/17 07:32:06;;;;;;;7.75;1.83;;;11.40;99.90;;;;;;6001055;23;20327;-87
2022/09/17 07:34:32;;;;;;;10.23;2.20;;;11.40;99.90;;;;;;6001992;23;20398;-86
2022/09/17 07:36:58;;;;;;;9.88;1.67;;;11.60;99.90;;;;;;6002645;23;20016;-86
2022/09/17 07:39:23;;;;;;;11.02;1.80;;;11.70;99.90;;;;;;6002535;23;20016;-84
2022/09/17 07:41:49;;;;;;;9.80;1.98;;;11.80;99.90;;;;;;6002562;23;20455;-86
2022/09/17 07:44:14;;;;;;;10.00;1.90;;;11.90;99.90;;;;;;6002025;23;20027;-88
2022/09/17 07:46:40;;;;;;;10.45;1.73;;;11.90;99.90;;;;;;6001671;23;20144;-88
2022/09/17 07:49:05;;;;;;;7.78;1.55;;;12.00;99.90;;;;;;6003669;23;20020;-86
2022/09/17 07:51:31;;;;;;;10.63;2.10;;;12.00;99.90;;;;;;6004260;23;20044;-86
2022/09/17 07:53:58;;;;;;;9.98;1.60;;;12.00;99.90;;;;;;6001027;23;20020;-86
2022/09/17 07:56:25;;;;;;;10.55;2.30;;;11.90;99.90;;;;;;6002198;23;20091;-85
2022/09/17 07:58:51;;;;;;;8.25;1.52;;;12.00;99.90;;;;;;6004111;23;20350;-86
2022/09/17 08:01:19;;;;;;;8.07;1.50;;;12.00;99.90;;;;;;6000291;23;20098;-85
2022/09/17 08:03:53;;;;;;;7.05;1.45;;;12.00;99.90;;;;;;6000506;23;20091;-87
2022/09/17 08:06:21;;;;;;;6.90;1.33;;;12.10;99.90;;;;;;6002184;23;20039;-85
2022/09/17 08:08:47;;;;;;;6.13;1.40;;;12.30;99.90;;;;;;6003594;23;20145;-87
2022/09/17 08:11:16;;;;;;;7.35;1.80;;;12.60;99.90;;;;;;6002559;23;20455;-85
2022/09/17 08:13:42;;;;;;;8.98;1.35;;;12.60;99.90;;;;;;6003889;23;20398;-86
2022/09/17 08:16:11;;;;;;;7.30;1.63;;;12.70;99.90;;;;;;6003459;23;20433;-86
2022/09/17 08:18:38;;;;;;;7.13;1.63;;;12.60;99.90;;;;;;6003537;23;20086;-87
2022/09/17 08:21:06;;;;;;;8.52;1.58;;;12.60;99.90;;;;;;6003336;23;20399;-88
2022/09/17 08:23:35;;;;;;;8.55;1.67;;;12.50;99.90;;;;;;6003774;23;20094;-89
2022/09/17 08:26:01;;;;;;;5.82;1.30;;;12.40;99.90;;;;;;5979084;23;20015;-88
2022/09/17 08:28:30;;;;;;;9.07;1.83;;;12.50;99.90;;;;;;6000850;23;20102;-87
2022/09/17 08:31:04;;;;;;;5.35;1.40;;;12.50;99.90;;;;;;6003418;23;20091;-86
2022/09/17 08:33:36;;;;;;;8.27;1.70;;;12.50;99.90;;;;;;6002923;23;20040;-91
2022/09/17 08:36:02;;;;;;;5.97;1.52;;;12.60;99.90;;;;;;5980099;23;20012;-90
2022/09/17 08:38:31;;;;;;;6.28;1.30;;;12.60;99.90;;;;;;6001769;23;20052;-87
2022/09/17 08:41:06;;;;;;;6.07;1.38;;;12.60;99.90;;;;;;6026517;23;20015;-91
2022/09/17 08:43:48;;;;;;;8.05;1.30;;;12.50;99.90;;;;;;6001784;23;20458;-90
2022/09/17 08:46:14;;;;;;;7.22;1.45;;;12.40;99.90;;;;;;6002501;23;20086;-86
2022/09/17 08:48:57;;;;;;;6.68;1.80;;;12.40;99.90;;;;;;6003387;23;20095;-91
2022/09/17 08:51:52;;;;;;;7.65;1.13;;;12.50;99.90;;;;;;6001050;23;20042;-90
2022/09/17 08:54:48;;;;;;;6.72;1.33;;;12.50;99.90;;;;;;6002343;23;20016;-91
2022/09/17 08:57:39;;;;;;;7.07;1.30;;;12.50;99.90;;;;;;5978315;23;20012;-90
2022/09/17 09:00:17;;;;;;;8.38;1.58;;;12.60;99.90;;;;;;6003974;23;20023;-90
2022/09/17 09:03:02;;;;;;;7.05;1.30;;;12.70;99.90;;;;;;6002664;23;20059;-90
2022/09/17 09:05:39;;;;;;;3.78;0.90;;;12.60;99.90;;;;;;5978242;23;20068;-90
2022/09/17 09:08:15;;;;;;;6.22;1.20;;;12.60;99.90;;;;;;6002312;23;20367;-91
2022/09/17 09:10:47;;;;;;;6.10;1.25;;;12.70;99.90;;;;;;6004079;23;20027;-91
2022/09/17 09:13:16;;;;;;;7.43;1.42;;;12.70;99.90;;;;;;6002030;23;20019;-89
2022/09/17 09:15:53;;;;;;;7.78;1.65;;;12.70;99.90;;;;;;6001211;23;20023;-90
2022/09/17 09:18:25;;;;;;;6.97;1.20;;;12.70;99.90;;;;;;6004088;23;20022;-88
2022/09/17 09:21:13;;;;;;;7.18;1.00;;;12.70;99.90;;;;;;6001250;23;20030;-90
2022/09/17 09:23:53;;;;;;;6.25;1.27;;;12.70;99.90;;;;;;6002360;23;20012;-90
2022/09/17 09:26:20;;;;;;;6.15;1.20;;;12.80;99.90;;;;;;6003646;23;20086;-91
2022/09/17 09:29:01;;;;;;;7.15;1.20;;;12.90;99.90;;;;;;5978432;23;20019;-89
2022/09/17 09:31:45;;;;;;;6.13;1.10;;;13.20;99.90;;;;;;5979116;23;20456;-91
2022/09/17 09:34:12;;;;;;;8.38;1.55;;;13.20;99.90;;;;;;6026391;23;20068;-91
2022/09/17 09:36:38;;;;;;;6.65;1.20;;;13.20;99.90;;;;;;6002237;23;20012;-90
2022/09/17 09:39:22;;;;;;;6.70;1.20;;;13.10;99.90;;;;;;6002659;23;20375;-90
2022/09/17 09:42:04;;;;;;;5.32;1.10;;;13.00;99.90;;;;;;6004498;23;20076;-93
2022/09/17 09:44:30;;;;;;;4.93;1.20;;;13.00;99.90;;;;;;5979220;23;20015;-89
2022/09/17 09:47:28;;;;;;;7.53;1.63;;;13.10;99.90;;;;;;5979354;23;20012;-90
2022/09/17 09:50:05;;;;;;;7.47;1.48;;;13.20;99.90;;;;;;6002451;23;20090;-91
2022/09/17 09:52:49;;;;;;;8.07;1.50;;;13.40;99.90;;;;;;5979458;23;20041;-90
2022/09/17 09:55:57;;;;;;;8.20;1.70;;;13.40;99.90;;;;;;6005537;23;20020;-89
2022/09/17 09:58:40;;;;;;;7.13;1.27;;;13.50;99.90;;;;;;6001892;23;20022;-90
2022/09/17 10:01:12;;;;;;;6.93;1.40;;;13.60;99.90;;;;;;6004425;23;20099;-91
2022/09/17 10:03:42;;;;;;;5.60;1.00;;;13.60;99.90;;;;;;5979374;23;20091;-87
2022/09/17 10:06:10;;;;;;;5.53;1.40;;;13.70;99.90;;;;;;6002945;23;20473;-89
2022/09/17 10:08:48;;;;;;;6.55;1.25;;;13.80;99.90;;;;;;6005231;23;20012;-92
2022/09/17 10:11:20;;;;;;;6.10;1.10;;;13.80;99.90;;;;;;6003959;23;20016;-89
2022/09/17 10:13:46;;;;;;;6.70;1.25;;;13.60;99.90;;;;;;6002993;23;20026;-90
2022/09/17 10:16:24;;;;;;;5.22;1.00;;;13.50;99.90;;;;;;5980039;23;20671;-87
2022/09/17 10:19:04;;;;;;;6.57;1.20;;;13.10;99.90;;;;;;6004836;23;20015;-88
2022/09/17 10:21:35;;;;;;;6.55;1.42;;;13.00;99.90;;;;;;5979394;23;20048;-90
2022/09/17 10:24:02;;;;;;;6.50;1.13;;;12.90;99.90;;;;;;6004443;23;20060;-91
2022/09/17 10:26:35;;;;;;;6.35;1.10;;;12.80;99.90;;;;;;6004521;23;20015;-92
2022/09/17 10:29:15;;;;;;;5.90;1.15;;;12.80;99.90;;;;;;6003591;23;20087;-89
2022/09/17 10:31:50;;;;;;;6.38;1.70;;;12.80;99.90;;;;;;6005428;23;20055;-90
2022/09/17 10:34:34;;;;;;;7.65;1.33;;;12.90;99.90;;;;;;6003015;23;20015;-91
2022/09/17 10:36:59;;;;;;;6.32;1.17;;;13.10;99.90;;;;;;6005806;23;20035;-87
2022/09/17 10:39:37;;;;;;;8.15;1.25;;;13.20;99.90;;;;;;6003689;23;20449;-86
2022/09/17 10:42:10;;;;;;;7.18;1.38;;;13.00;99.90;;;;;;6006135;23;20040;-89
2022/09/17 10:44:37;;;;;;;6.90;1.30;;;13.00;99.90;;;;;;5979035;23;20015;-90
2022/09/17 10:47:35;;;;;;;5.55;1.10;;;12.90;99.90;;;;;;5980700;23;20016;-87
2022/09/17 10:50:06;;;;;;;6.93;1.48;;;12.80;99.90;;;;;;5957218;23;20394;-90
2022/09/17 10:52:36;;;;;;;;;;;12.80;99.90;;;;;;6004554;23;20019;-92
2022/09/17 10:55:22;;;;;;;8.43;1.57;;;12.80;99.90;;;;;;6003945;23;19914;-92
2022/09/17 10:58:03;;;;;;;8.25;1.50;;;12.90;99.90;;;;;;5979398;23;20016;-88
2022/09/17 11:00:32;;;;;;;8.23;1.10;;;13.00;99.90;;;;;;5979357;23;20043;-91
2022/09/17 11:03:13;;;;;;;6.40;1.50;;;13.10;99.90;;;;;;6002490;23;20349;-88
2022/09/17 11:06:04;;;;;;;7.63;1.40;;;13.30;99.90;;;;;;6003802;23;20100;-87
2022/09/17 11:08:54;;;;;;;9.07;1.60;;;13.40;99.90;;;;;;6005563;23;20020;-86
2022/09/17 11:11:39;;;;;;;9.43;1.80;;;13.50;99.90;;;;;;6003877;23;20047;-90
2022/09/17 11:14:32;;;;;;;8.60;1.90;;;13.80;99.90;;;;;;5982954;23;20027;-88
2022/09/17 11:17:05;;;;;;;8.25;1.40;;;14.10;99.90;;;;;;5979243;23;20020;-88
2022/09/17 11:19:54;;;;;;;8.85;1.73;;;14.30;99.90;;;;;;6003407;23;20015;-89
2022/09/17 11:22:38;;;;;;;14.77;2.47;;;14.40;99.90;;;;;;6004479;23;20024;-87
2022/09/17 11:25:22;;;;;;;9.02;1.85;;;14.30;99.90;;;;;;6004260;23;20022;-84
2022/09/17 11:28:08;;;;;;;8.98;1.65;;;12.90;99.90;;;;;;6004557;23;20043;-84
2022/09/17 11:31:11;;;;;;;8.07;1.70;;;12.00;99.90;;;;;;6004231;23;20024;-86
2022/09/17 11:33:52;;;;;;;7.28;1.40;;;11.40;99.90;;;;;;6004504;23;20054;-86
2022/09/17 11:36:50;;;;;;;6.70;1.48;;;11.10;99.90;;;;;;6003966;23;20343;-85
2022/09/17 11:39:26;;;;;;;6.72;1.30;;;11.00;99.90;;;;;;6003912;23;20027;-86
2022/09/17 11:41:54;;;;;;;5.85;1.40;;;11.00;99.90;;;;;;6004862;23;20018;-86
2022/09/17 11:44:27;;;;;;;9.23;1.63;;;11.10;99.90;;;;;;6004784;23;20023;-85
2022/09/17 11:47:04;;;;;;;9.52;1.40;;;11.10;99.90;;;;;;6001185;23;20028;-84
2022/09/17 11:49:40;;;;;;;8.75;1.58;;;11.20;99.90;;;;;;6002665;23;20020;-86
2022/09/17 11:52:12;;;;;;;10.40;2.00;;;11.20;99.90;;;;;;6002920;23;20020;-86
2022/09/17 11:55:12;;;;;;;8.68;1.60;;;11.30;99.90;;;;;;6002933;23;20637;-86
2022/09/17 11:57:41;;;;;;;8.20;1.80;;;11.40;99.90;;;;;;5978112;23;20026;-85
2022/09/17 12:00:16;;;;;;;10.27;1.90;;;11.50;99.90;;;;;;6002795;23;20015;-87
2022/09/17 12:03:06;;;;;;;9.73;1.73;;;11.60;99.90;;;;;;6002874;23;20556;-85
2022/09/17 12:05:42;;;;;;;6.07;1.30;;;11.70;99.90;;;;;;5988664;23;20519;-87
2022/09/17 12:08:16;;;;;;;8.57;1.52;;;11.70;99.90;;;;;;6002662;23;20016;-87
2022/09/17 12:10:54;;;;;;;10.15;1.65;;;11.60;99.90;;;;;;6002801;23;20465;-85
2022/09/17 12:14:03;;;;;;;7.22;1.50;;;11.60;99.90;;;;;;6004823;23;20020;-85
2022/09/17 12:16:42;;;;;;;8.88;1.77;;;11.60;99.90;;;;;;5917401;24;20013;-88
2022/09/17 12:19:30;;;;;;;10.45;1.88;;;11.60;99.90;;;;;;5917100;24;20029;-87
2022/09/17 12:22:16;;;;;;;8.65;1.63;;;11.80;99.90;;;;;;5916841;24;20036;-86
2022/09/17 12:24:43;;;;;;;9.57;1.80;;;12.00;99.90;;;;;;5917461;24;20493;-87
2022/09/17 12:27:23;;;;;;;9.23;1.80;;;12.00;99.90;;;;;;5917428;24;20017;-85
2022/09/17 12:30:08;;;;;;;8.70;1.77;;;12.10;99.90;;;;;;5916591;24;20371;-86
2022/09/17 12:32:49;;;;;;;8.80;1.92;;;12.10;99.90;;;;;;5894810;24;20061;-87
2022/09/17 12:35:33;;;;;;;10.55;1.80;;;12.00;99.90;;;;;;5917153;24;20448;-86
2022/09/17 12:38:38;;;;;;;11.77;2.40;;;12.00;99.90;;;;;;5917924;24;20455;-87
2022/09/17 12:41:19;;;;;;;9.57;2.08;;;12.00;99.90;;;;;;5917285;24;20123;-86
2022/09/17 12:44:01;;;;;;;10.85;2.10;;;12.00;99.90;;;;;;5917131;24;20029;-88
2022/09/17 12:46:37;;;;;;;8.80;2.00;;;12.20;99.90;;;;;;5932046;23;20026;-88
2022/09/17 12:49:31;;;;;;;14.38;2.40;;;12.30;99.90;;;;;;6002561;23;20348;-88
2022/09/17 12:52:00;;;;;;;9.77;2.00;;;12.50;99.90;;;;;;6001919;23;20095;-86
2022/09/17 12:54:54;;;;;;;12.82;2.70;;;12.70;99.90;;;;;;6002356;23;20023;-87
2022/09/17 12:57:33;;;;;;;11.95;2.00;;;12.90;99.90;;;;;;6002938;23;20024;-86
2022/09/17 13:00:07;;;;;;;9.32;1.50;;;13.10;99.90;;;;;;6003643;23;20144;-88
2022/09/17 13:02:55;;;;;;;9.73;1.73;;;13.00;99.90;;;;;;6001714;23;20023;-86
2022/09/17 13:05:56;;;;;;;8.43;1.63;;;12.90;99.90;;;;;;6002797;23;20023;-88
2022/09/17 13:08:35;;;;;;;8.90;1.90;;;12.70;99.90;;;;;;5996397;23;20103;-86
2022/09/17 13:11:26;;;;;;;10.13;1.98;;;12.70;99.90;;;;;;6003553;23;20031;-85
2022/09/17 13:14:08;;;;;;;11.95;2.47;;;12.70;99.90;;;;;;6000349;23;20055;-88
2022/09/17 13:16:44;;;;;;;12.55;2.78;;;12.80;99.90;;;;;;6002389;23;20059;-86
2022/09/17 13:19:47;;;;;;;12.32;2.60;;;13.00;99.90;;;;;;6002514;23;20055;-87
2022/09/17 13:22:17;;;;;;;11.73;2.20;;;13.20;99.90;;;;;;6002831;23;20379;-87
2022/09/17 13:24:46;;;;;;;11.55;2.80;;;13.40;99.90;;;;;;6004577;23;20012;-87
2022/09/17 13:27:21;;;;;;;12.88;2.72;;;13.50;99.90;;;;;;6003903;23;20012;-87
2022/09/17 13:29:53;;;;;;;11.73;2.30;;;13.60;99.90;;;;;;6002894;23;20024;-88
2022/09/17 13:32:34;;;;;;;13.30;2.75;;;13.60;99.90;;;;;;6005029;23;20091;-87
2022/09/17 13:35:08;;;;;;;11.65;3.10;;;13.60;99.90;;;;;;6003868;23;20011;-86
2022/09/17 13:37:37;;;;;;;12.52;2.50;;;13.60;99.90;;;;;;6005762;23;20080;-87
2022/09/17 13:40:17;;;;;;;11.80;2.70;;;13.70;99.90;;;;;;6004283;23;20450;-87
2022/09/17 13:42:46;;;;;;;12.52;3.10;;;13.70;99.90;;;;;;6005056;23;20020;-86
2022/09/17 13:45:15;;;;;;;11.20;2.50;;;13.80;99.90;;;;;;5981202;23;20027;-89
2022/09/17 13:48:09;;;;;;;11.60;2.25;;;13.90;99.90;;;;;;6003883;23;20012;-86
2022/09/17 13:50:40;;;;;;;13.02;1.98;;;13.90;99.90;;;;;;6002727;23;20086;-87
2022/09/17 13:53:15;;;;;;;11.40;2.40;;;13.90;99.90;;;;;;6003744;23;20027;-87
2022/09/17 13:55:48;;;;;;;11.70;2.17;;;13.90;99.90;;;;;;6004459;23;20087;-87
2022/09/17 13:58:17;;;;;;;12.13;2.15;;;13.90;99.90;;;;;;5979507;23;20080;-86
2022/09/17 14:00:56;;;;;;;11.20;2.42;;;14.00;99.90;;;;;;6004263;23;20379;-87
2022/09/17 14:03:29;;;;;;;10.88;2.05;;;14.10;99.90;;;;;;6003750;23;20159;-90
2022/09/17 14:06:04;;;;;;;10.18;2.08;;;14.30;99.90;;;;;;6004038;23;20330;-90
2022/09/17 14:08:46;;;;;;;10.00;2.42;;;14.40;99.90;;;;;;6004181;23;20346;-87
2022/09/17 14:11:31;;;;;;;7.32;1.98;;;14.60;99.90;;;;;;5980434;23;20468;-87
2022/09/17 14:14:03;;;;;;;11.07;2.10;;;14.70;99.90;;;;;;6003521;23;20023;-88
2022/09/17 14:16:34;;;;;;;9.48;2.05;;;14.70;99.90;;;;;;6004934;23;20034;-86
2022/09/17 14:19:22;;;;;;;12.75;2.45;;;14.60;99.90;;;;;;6005321;23;20016;-89
2022/09/17 14:21:56;;;;;;;11.55;1.90;;;14.40;99.90;;;;;;5980067;23;20016;-87
2022/09/17 14:24:24;;;;;;;8.55;1.65;;;14.10;99.90;;;;;;6002565;23;20020;-86
2022/09/17 14:26:58;;;;;;;10.43;1.90;;;13.80;99.90;;;;;;6002791;23;20023;-87
2022/09/17 14:29:28;;;;;;;10.82;2.90;;;13.70;99.90;;;;;;6001873;23;20095;-87
2022/09/17 14:31:55;;;;;;;10.02;2.58;;;13.60;99.90;;;;;;6004339;23;20449;-87
2022/09/17 14:34:23;;;;;;;11.07;2.40;;;13.60;99.90;;;;;;6004857;23;20026;-87
2022/09/17 14:36:50;;;;;;;10.00;2.38;;;13.70;99.90;;;;;;6027411;23;20042;-86
2022/09/17 14:39:28;;;;;;;11.82;2.45;;;13.70;99.90;;;;;;6002976;23;20091;-87
2022/09/17 14:41:54;;;;;;;11.02;2.10;;;13.70;99.90;;;;;;5979347;23;20015;-87
2022/09/17 14:44:25;;;;;;;9.13;1.83;;;13.70;99.90;;;;;;5978690;23;20087;-86
2022/09/17 14:46:57;;;;;;;9.57;1.75;;;13.60;99.90;;;;;;6003369;23;20019;-88
2022/09/17 14:49:35;;;;;;;8.13;1.80;;;13.50;99.90;;;;;;6005943;23;20015;-87
2022/09/17 14:52:16;;;;;;;10.55;2.00;;;13.30;99.90;;;;;;6004043;23;20159;-87
2022/09/17 14:54:43;;;;;;;10.82;1.90;;;13.30;99.90;;;;;;6003363;23;20047;-88
2022/09/17 14:57:09;;;;;;;7.70;1.60;;;13.30;99.90;;;;;;6004031;23;20046;-88
2022/09/17 14:59:52;;;;;;;7.57;1.58;;;13.30;99.90;;;;;;5978117;23;20067;-88
2022/09/17 15:02:35;;;;;;;8.55;1.45;;;13.30;99.90;;;;;;6002274;23;20024;-85
2022/09/17 15:05:02;;;;;;;8.30;1.88;;;13.10;99.90;;;;;;6003862;23;20023;-87
2022/09/17 15:07:28;;;;;;;6.65;1.40;;;12.90;99.90;;;;;;5979838;23;20060;-87
2022/09/17 15:10:06;;;;;;;9.25;1.73;;;12.70;99.90;;;;;;6002794;23;20015;-87
2022/09/17 15:12:32;;;;;;;9.48;1.60;;;12.60;99.90;;;;;;5979111;23;20095;-87
2022/09/17 15:14:57;;;;;;;9.80;1.70;;;12.50;99.90;;;;;;6002915;23;20449;-87
2022/09/17 15:17:23;;;;;;;9.65;1.95;;;12.40;99.90;;;;;;6003397;23;20457;-86
2022/09/17 15:19:53;;;;;;;7.90;1.60;;;12.40;99.90;;;;;;5978496;23;20404;-86
2022/09/17 15:22:55;;;;;;;10.40;1.63;;;12.30;99.90;;;;;;6002576;23;20020;-89
2022/09/17 15:25:24;;;;;;;6.97;1.55;;;12.30;99.90;;;;;;5983242;23;20020;-87
2022/09/17 15:27:53;;;;;;;8.57;1.77;;;12.30;99.90;;;;;;6001939;23;20030;-87
2022/09/17 15:30:24;;;;;;;7.68;1.65;;;12.40;99.90;;;;;;6002833;23;20115;-86
2022/09/17 15:32:59;;;;;;;7.75;1.70;;;12.40;99.90;;;;;;6025466;23;20027;-87
2022/09/17 15:35:28;;;;;;;8.13;1.50;;;12.50;99.90;;;;;;6002098;23;20054;-88
2022/09/17 15:37:55;;;;;;;6.38;1.70;;;12.50;99.90;;;;;;6004015;23;20070;-89
2022/09/17 15:40:28;;;;;;;9.02;1.83;;;12.60;99.90;;;;;;6001790;23;20018;-86
2022/09/17 15:43:00;;;;;;;5.88;1.50;;;12.70;99.90;;;;;;6001970;23;20387;-88
2022/09/17 15:45:30;;;;;;;7.72;1.77;;;12.80;99.90;;;;;;6004570;23;20334;-87
2022/09/17 15:48:00;;;;;;;6.93;1.50;;;12.90;99.90;;;;;;6002635;23;20027;-87
2022/09/17 15:50:27;;;;;;;7.70;1.50;;;13.00;99.90;;;;;;6001995;23;20023;-87
2022/09/17 15:53:08;;;;;;;7.10;1.00;;;13.10;99.90;;;;;;6001510;23;20102;-86
2022/09/17 15:55:57;;;;;;;8.65;1.63;;;13.00;99.90;;;;;;6001662;23;20045;-86
2022/09/17 15:58:40;;;;;;;7.68;1.40;;;13.00;99.90;;;;;;6004135;23;20007;-87
2022/09/17 16:01:15;;;;;;;6.70;1.10;;;13.00;99.90;;;;;;6003486;23;20031;-85
2022/09/17 16:03:40;;;;;;;7.20;1.50;;;13.00;99.90;;;;;;6002286;23;20027;-86
2022/09/17 16:06:26;;;;;;;7.45;1.25;;;13.00;99.90;;;;;;6002424;23;20019;-86
2022/09/17 16:08:53;;;;;;;6.78;1.42;;;13.00;99.90;;;;;;5963657;23;20582;-88
2022/09/17 16:11:20;;;;;;;8.10;1.48;;;13.00;99.90;;;;;;5978404;23;20049;-87
2022/09/17 16:13:47;;;;;;;8.40;1.42;;;13.10;99.90;;;;;;6000201;23;20016;-87
2022/09/17 16:16:16;;;;;;;7.90;1.60;;;13.10;99.90;;;;;;6003846;23;20342;-87
2022/09/17 16:18:42;;;;;;;7.55;1.80;;;13.10;99.90;;;;;;6002494;23;20024;-87
2022/09/17 16:21:12;;;;;;;10.38;2.15;;;13.10;99.90;;;;;;6001852;23;20338;-86
2022/09/17 16:23:39;;;;;;;9.53;2.23;;;13.10;99.90;;;;;;6001361;23;20024;-86
2022/09/17 16:26:06;;;;;;;9.05;2.05;;;13.00;99.90;;;;;;6002086;23;20520;-86
2022/09/17 16:28:32;;;;;;;10.73;2.10;;;13.00;99.90;;;;;;6001428;23;20024;-86
2022/09/17 16:30:58;;;;;;;8.35;2.03;;;13.00;99.90;;;;;;6001682;23;20023;-86
2022/09/17 16:33:26;;;;;;;12.88;2.20;;;13.00;99.90;;;;;;5977970;23;20426;-88
2022/09/17 16:35:56;;;;;;;10.23;2.60;;;13.00;99.90;;;;;;6000635;23;20349;-87
2022/09/17 16:38:21;;;;;;;11.85;2.17;;;13.10;99.90;;;;;;6002257;23;20044;-87
2022/09/17 16:40:47;;;;;;;11.02;2.28;;;13.10;99.90;;;;;;5978103;23;20023;-87
2022/09/17 16:43:14;;;;;;;10.82;2.50;;;13.10;99.90;;;;;;6003025;23;20015;-87
2022/09/17 16:45:39;;;;;;;12.40;2.60;;;13.10;99.90;;;;;;5978612;23;20019;-87
2022/09/17 16:48:06;;;;;;;11.30;2.47;;;13.10;99.90;;;;;;6001984;23;20011;-87
2022/09/17 16:50:33;;;;;;;10.25;2.17;;;13.10;99.90;;;;;;6000632;23;20023;-86
2022/09/17 16:52:58;;;;;;;10.77;2.17;;;13.10;99.90;;;;;;6000575;23;20019;-86
2022/09/17 16:55:24;;;;;;;9.90;2.13;;;13.00;99.90;;;;;;6001344;23;20450;-88
2022/09/17 16:57:50;;;;;;;12.55;2.30;;;13.00;99.90;;;;;;6003036;23;20023;-87
2022/09/17 17:00:18;;;;;;;11.95;2.20;;;12.90;99.90;;;;;;6001424;23;20034;-86
2022/09/17 17:02:55;;;;;;;11.43;2.20;;;12.90;99.90;;;;;;6002792;23;20051;-86
2022/09/17 17:05:22;;;;;;;10.75;2.15;;;12.80;99.90;;;;;;5977803;23;20035;-87
2022/09/17 17:07:48;;;;;;;10.20;2.22;;;12.80;99.90;;;;;;6001417;23;20019;-87
2022/09/17 17:10:14;;;;;;;10.52;2.70;;;12.70;99.90;;;;;;6001822;23;20007;-88
2022/09/17 17:12:40;;;;;;;10.18;2.60;;;12.70;99.90;;;;;;6000814;23;20102;-86
2022/09/17 17:15:06;;;;;;;9.77;2.53;;;12.60;99.90;;;;;;5978031;23;20094;-87
2022/09/17 17:17:34;;;;;;;10.82;2.20;;;12.60;99.90;;;;;;6001512;23;20042;-88
2022/09/17 17:20:00;;;;;;;12.18;2.85;;;12.60;99.90;;;;;;6001401;23;20023;-86
2022/09/17 17:22:26;;;;;;;12.38;2.25;;;12.50;99.90;;;;;;6001393;23;20023;-87
2022/09/17 17:24:52;;;;;;;13.80;2.75;;;12.50;99.90;;;;;;6002241;23;20016;-87
2022/09/17 17:27:17;;;;;;;13.73;2.50;;;12.50;99.90;;;;;;6003629;23;20269;-87
2022/09/17 17:29:43;;;;;;;12.52;2.63;;;12.40;99.90;;;;;;5978103;23;20012;-86
2022/09/17 17:32:09;;;;;;;10.07;2.20;;;12.40;99.90;;;;;;5978475;23;20374;-86
2022/09/17 17:34:34;;;;;;;11.75;2.15;;;12.40;99.90;;;;;;6000389;23;20011;-86
2022/09/17 17:37:00;;;;;;;9.85;2.60;;;12.40;99.90;;;;;;6002251;23;20449;-88
2022/09/17 17:39:26;;;;;;;11.80;2.20;;;12.30;99.90;;;;;;6002113;23;20343;-87
2022/09/17 17:41:53;;;;;;;12.45;2.50;;;12.30;99.90;;;;;;6001753;23;20016;-87
2022/09/17 17:44:19;;;;;;;14.05;2.85;;;12.30;99.90;;;;;;6001241;23;20035;-89
2022/09/17 17:46:44;;;;;;;13.18;2.83;;;12.30;99.90;;;;;;6001967;23;20412;-86
2022/09/17 17:49:10;;;;;;;11.43;2.55;;;12.20;99.90;;;;;;6001805;23;20020;-87
2022/09/17 17:51:36;;;;;;;9.52;2.33;;;12.20;99.90;;;;;;6001846;23;20080;-89
2022/09/17 17:54:01;;;;;;;10.95;2.00;;;12.20;99.90;;;;;;5978095;23;20015;-87
2022/09/17 17:56:27;;;;;;;8.77;2.33;;;12.20;99.90;;;;;;6002988;23;20019;-87
2022/09/17 17:58:55;;;;;;;9.57;2.25;;;12.20;99.90;;;;;;6001828;23;20337;-88
2022/09/17 18:01:26;;;;;;;10.25;2.55;;;12.20;99.90;;;;;;6003713;23;20011;-87
2022/09/17 18:03:58;;;;;;;;;;;12.20;99.90;;;;;;6000233;23;20026;-86
2022/09/17 18:06:25;;;;;;;12.48;3.28;;;12.10;99.90;;;;;;6003689;23;19925;-88
2022/09/17 18:08:51;;;;;;;11.25;2.70;;;12.10;99.90;;;;;;6001364;23;20019;-86
2022/09/17 18:11:17;;;;;;;10.25;2.10;;;12.10;99.90;;;;;;5978387;23;20056;-87
2022/09/17 18:13:43;;;;;;;11.20;2.42;;;12.10;99.90;;;;;;6002963;23;20314;-88
2022/09/17 18:16:11;;;;;;;9.82;2.10;;;12.10;99.90;;;;;;6002914;23;20075;-87
2022/09/17 18:18:40;;;;;;;10.13;2.30;;;12.00;99.90;;;;;;6002728;23;20016;-87
2022/09/17 18:21:08;;;;;;;9.02;1.73;;;12.00;99.90;;;;;;6003911;23;20311;-87
2022/09/17 18:23:36;;;;;;;8.10;2.05;;;12.00;99.90;;;;;;6002948;23;20453;-87
2022/09/17 18:26:03;;;;;;;8.05;1.90;;;12.00;99.90;;;;;;6003518;23;20024;-87
2022/09/17 18:28:30;;;;;;;7.45;1.75;;;12.00;99.90;;;;;;6005011;23;20047;-87
2022/09/17 18:30:56;;;;;;;8.70;1.90;;;12.00;99.90;;;;;;6003489;23;20026;-86
2022/09/17 18:33:25;;;;;;;7.28;1.52;;;12.00;99.90;;;;;;6003880;23;20016;-88
2022/09/17 18:35:56;;;;;;;7.00;1.77;;;12.00;99.90;;;;;;6003088;23;20023;-88
2022/09/17 18:38:22;;;;;;;7.65;1.73;;;12.00;99.90;;;;;;6004263;23;20023;-87
2022/09/17 18:40:49;;;;;;;8.68;1.83;;;11.90;99.90;;;;;;6002450;23;20048;-87
2022/09/17 18:43:14;;;;;;;9.43;2.10;;;11.90;99.90;;;;;;6003206;23;20051;-87
2022/09/17 18:45:40;;;;;;;6.95;2.20;;;11.80;99.90;;;;;;6003676;23;20020;-87
2022/09/17 18:48:06;;;;;;;6.20;1.50;;;11.80;99.90;;;;;;5978183;23;20094;-86
2022/09/17 18:50:32;;;;;;;10.35;2.25;;;11.80;99.90;;;;;;5997735;23;20023;-86
2022/09/17 18:52:57;;;;;;;7.63;1.85;;;11.80;99.90;;;;;;6002183;23;20075;-86
2022/09/17 18:55:23;;;;;;;10.13;2.13;;;11.80;99.90;;;;;;6002971;23;20107;-86
2022/09/17 18:57:50;;;;;;;7.72;1.70;;;11.80;99.90;;;;;;6004789;23;20027;-85
2022/09/17 19:00:19;;;;;;;9.63;2.00;;;11.80;99.90;;;;;;6004392;23;20129;-86
2022/09/17 19:02:48;;;;;;;8.75;1.63;;;11.80;99.90;;;;;;6002236;23;20346;-86
2022/09/17 19:05:15;;;;;;;9.07;1.70;;;11.80;99.90;;;;;;6005093;23;20024;-86
2022/09/17 19:07:45;;;;;;;8.98;1.80;;;11.70;99.90;;;;;;6003809;23;20076;-86
2022/09/17 19:10:12;;;;;;;9.10;2.20;;;11.80;99.90;;;;;;6005389;23;20120;-85
2022/09/17 19:12:37;;;;;;;8.60;1.48;;;11.60;99.90;;;;;;6002416;23;20068;-87
2022/09/17 19:15:04;;;;;;;7.15;1.98;;;11.60;99.90;;;;;;6000983;23;20020;-86
2022/09/17 19:17:29;;;;;;;8.38;1.92;;;11.60;99.90;;;;;;6003973;23;20020;-88
2022/09/17 19:19:55;;;;;;;7.25;1.88;;;11.50;99.90;;;;;;5981755;23;20461;-91
2022/09/17 19:22:22;;;;;;;10.48;1.80;;;11.50;99.90;;;;;;6004315;23;20098;-89
2022/09/17 19:24:48;;;;;;;8.23;1.60;;;11.50;99.90;;;;;;6004922;23;20115;-87
2022/09/17 19:27:13;;;;;;;7.65;1.77;;;11.40;99.90;;;;;;6004763;23;20099;-87
2022/09/17 19:29:39;;;;;;;7.50;1.85;;;11.40;99.90;;;;;;6002942;23;20434;-88
2022/09/17 19:32:04;;;;;;;9.90;1.70;;;11.40;99.90;;;;;;6002301;23;20072;-86
2022/09/17 19:34:30;;;;;;;7.05;1.58;;;11.30;99.90;;;;;;6003382;23;20022;-86
2022/09/17 19:36:55;;;;;;;10.68;1.85;;;11.30;99.90;;;;;;6004344;23;20019;-86
2022/09/17 19:39:21;;;;;;;8.10;1.80;;;11.30;99.90;;;;;;6006333;23;20047;-87
2022/09/17 19:41:46;;;;;;;7.65;1.70;;;11.10;99.90;;;;;;6004769;23;20330;-87
2022/09/17 19:44:12;;;;;;;10.38;1.88;;;11.20;99.90;;;;;;6002366;23;20023;-87
2022/09/17 19:46:38;;;;;;;8.90;1.77;;;11.20;99.90;;;;;;6002690;23;20064;-86
2022/09/17 19:49:03;;;;;;;8.23;2.20;;;11.20;99.90;;;;;;6002997;23;20024;-87
2022/09/17 19:51:30;;;;;;;8.52;1.70;;;11.10;99.90;;;;;;6002575;23;20034;-86
2022/09/17 19:53:56;;;;;;;8.93;1.45;;;11.00;99.90;;;;;;6004980;23;20374;-87
2022/09/17 19:56:25;;;;;;;8.43;1.60;;;11.00;99.90;;;;;;6003424;23;20015;-87
2022/09/17 19:58:51;;;;;;;9.68;1.85;;;11.00;99.90;;;;;;6001821;23;20098;-86
2022/09/17 20:01:17;;;;;;;8.70;1.80;;;11.00;99.90;;;;;;6004382;23;20310;-88
2022/09/17 20:03:44;;;;;;;9.27;1.73;;;11.00;99.90;;;;;;6004465;23;20374;-87
2022/09/17 20:06:12;;;;;;;8.50;1.95;;;11.00;99.90;;;;;;6001857;23;20040;-86
2022/09/17 20:08:45;;;;;;;11.13;2.22;;;11.00;99.90;;;;;;6002984;23;20016;-86
2022/09/17 20:11:11;;;;;;;10.15;1.80;;;11.00;99.90;;;;;;6002627;23;20022;-87
2022/09/17 20:13:37;;;;;;;11.20;2.13;;;11.00;99.90;;;;;;6002939;23;20011;-87